sensor_id;sensor_type;location;lat;lon;timestamp;P1;durP1;ratioP1;P2;durP2;ratioP2
22697;SDS011;11516;51.612;7.510;2023-02-11T00:00:32;41.67;;;28.38;;
22697;SDS011;11516;51.612;7.510;2023-02-11T00:02:57;41.40;;;28.87;;
22697;SDS011;11516;51.612;7.510;2023-02-11T00:05:23;42.93;;;28.60;;
22697;SDS011;11516;51.612;7.510;2023-02-11T00:07:49;43.15;;;28.30;;
22697;SDS011;11516;51.612;7.510;2023-02-11T00:10:14;43.47;;;28.30;;
22697;SDS011;11516;51.612;7.510;2023-02-11T00:12:40;42.83;;;27.57;;
22697;SDS011;11516;51.612;7.510;2023-02-11T00:15:07;43.70;;;27.75;;
22697;SDS011;11516;51.612;7.510;2023-02-11T00:17:33;40.95;;;26.98;;
22697;SDS011;11516;51.612;7.510;2023-02-11T00:19:58;43.00;;;27.88;;
22697;SDS011;11516;51.612;7.510;2023-02-11T00:22:24;43.63;;;29.07;;
22697;SDS011;11516;51.612;7.510;2023-02-11T00:24:49;41.93;;;28.30;;
22697;SDS011;11516;51.612;7.510;2023-02-11T00:27:15;41.78;;;28.40;;
22697;SDS011;11516;51.612;7.510;2023-02-11T00:29:40;43.00;;;29.20;;
22697;SDS011;11516;51.612;7.510;2023-02-11T00:32:06;38.73;;;27.93;;
22697;SDS011;11516;51.612;7.510;2023-02-11T00:34:33;36.75;;;27.23;;
22697;SDS011;11516;51.612;7.510;2023-02-11T00:36:59;42.15;;;27.50;;
22697;SDS011;11516;51.612;7.510;2023-02-11T00:39:25;41.10;;;25.67;;
22697;SDS011;11516;51.612;7.510;2023-02-11T00:41:50;40.00;;;25.97;;
22697;SDS011;11516;51.612;7.510;2023-02-11T00:44:16;43.13;;;27.35;;
22697;SDS011;11516;51.612;7.510;2023-02-11T00:46:41;41.47;;;26.20;;
22697;SDS011;11516;51.612;7.510;2023-02-11T00:49:07;38.00;;;25.05;;
22697;SDS011;11516;51.612;7.510;2023-02-11T00:51:33;36.47;;;26.33;;
22697;SDS011;11516;51.612;7.510;2023-02-11T00:53:58;37.17;;;25.07;;
22697;SDS011;11516;51.612;7.510;2023-02-11T00:56:24;39.25;;;26.58;;
22697;SDS011;11516;51.612;7.510;2023-02-11T00:58:50;39.75;;;26.08;;
22697;SDS011;11516;51.612;7.510;2023-02-11T01:01:15;38.17;;;25.30;;
22697;SDS011;11516;51.612;7.510;2023-02-11T01:03:41;35.50;;;24.20;;
22697;SDS011;11516;51.612;7.510;2023-02-11T01:06:07;37.25;;;25.17;;
22697;SDS011;11516;51.612;7.510;2023-02-11T01:08:32;35.15;;;24.02;;
22697;SDS011;11516;51.612;7.510;2023-02-11T01:10:59;38.15;;;24.13;;
22697;SDS011;11516;51.612;7.510;2023-02-11T01:13:27;37.80;;;25.23;;
22697;SDS011;11516;51.612;7.510;2023-02-11T01:15:54;33.83;;;23.35;;
22697;SDS011;11516;51.612;7.510;2023-02-11T01:18:20;38.25;;;25.05;;
22697;SDS011;11516;51.612;7.510;2023-02-11T01:20:45;35.53;;;23.93;;
22697;SDS011;11516;51.612;7.510;2023-02-11T01:23:11;37.37;;;23.47;;
22697;SDS011;11516;51.612;7.510;2023-02-11T01:25:36;35.72;;;24.30;;
22697;SDS011;11516;51.612;7.510;2023-02-11T01:28:02;36.60;;;23.67;;
22697;SDS011;11516;51.612;7.510;2023-02-11T01:30:28;37.25;;;24.00;;
22697;SDS011;11516;51.612;7.510;2023-02-11T01:32:54;35.13;;;23.47;;
22697;SDS011;11516;51.612;7.510;2023-02-11T01:35:19;36.73;;;24.07;;
22697;SDS011;11516;51.612;7.510;2023-02-11T01:37:45;34.47;;;22.60;;
22697;SDS011;11516;51.612;7.510;2023-02-11T01:40:12;35.73;;;23.83;;
22697;SDS011;11516;51.612;7.510;2023-02-11T01:42:39;33.85;;;23.45;;
22697;SDS011;11516;51.612;7.510;2023-02-11T01:48:08;34.22;;;22.83;;
22697;SDS011;11516;51.612;7.510;2023-02-11T01:50:37;33.07;;;22.83;;
22697;SDS011;11516;51.612;7.510;2023-02-11T01:53:04;35.07;;;21.87;;
22697;SDS011;11516;51.612;7.510;2023-02-11T01:55:48;35.08;;;22.70;;
22697;SDS011;11516;51.612;7.510;2023-02-11T01:58:34;35.65;;;22.15;;
22697;SDS011;11516;51.612;7.510;2023-02-11T02:01:04;34.80;;;22.10;;
22697;SDS011;11516;51.612;7.510;2023-02-11T02:03:32;32.65;;;22.23;;
22697;SDS011;11516;51.612;7.510;2023-02-11T02:06:08;31.67;;;21.92;;
22697;SDS011;11516;51.612;7.510;2023-02-11T02:08:48;31.80;;;22.13;;
22697;SDS011;11516;51.612;7.510;2023-02-11T02:11:19;34.30;;;22.00;;
22697;SDS011;11516;51.612;7.510;2023-02-11T02:13:44;37.37;;;21.97;;
22697;SDS011;11516;51.612;7.510;2023-02-11T02:16:11;34.08;;;22.88;;
22697;SDS011;11516;51.612;7.510;2023-02-11T02:18:57;29.17;;;20.52;;
22697;SDS011;11516;51.612;7.510;2023-02-11T02:38:27;34.35;;;21.95;;
22697;SDS011;11516;51.612;7.510;2023-02-11T02:41:01;33.08;;;22.23;;
22697;SDS011;11516;51.612;7.510;2023-02-11T02:43:31;32.90;;;22.02;;
22697;SDS011;11516;51.612;7.510;2023-02-11T02:46:10;32.03;;;21.35;;
22697;SDS011;11516;51.612;7.510;2023-02-11T02:48:54;35.50;;;21.98;;
22697;SDS011;11516;51.612;7.510;2023-02-11T02:56:53;30.43;;;19.93;;
22697;SDS011;11516;51.612;7.510;2023-02-11T03:00:08;33.80;;;21.40;;
22697;SDS011;11516;51.612;7.510;2023-02-11T03:10:26;31.73;;;20.00;;
22697;SDS011;11516;51.612;7.510;2023-02-11T03:12:55;34.25;;;20.27;;
22697;SDS011;11516;51.612;7.510;2023-02-11T03:15:22;29.98;;;21.20;;
22697;SDS011;11516;51.612;7.510;2023-02-11T03:20:27;30.65;;;20.95;;
22697;SDS011;11516;51.612;7.510;2023-02-11T03:22:57;31.45;;;20.42;;
22697;SDS011;11516;51.612;7.510;2023-02-11T03:25:45;26.95;;;19.02;;
22697;SDS011;11516;51.612;7.510;2023-02-11T03:31:00;30.80;;;20.50;;
22697;SDS011;11516;51.612;7.510;2023-02-11T03:36:50;32.88;;;20.55;;
22697;SDS011;11516;51.612;7.510;2023-02-11T03:39:22;30.63;;;21.33;;
22697;SDS011;11516;51.612;7.510;2023-02-11T03:42:10;32.47;;;21.20;;
22697;SDS011;11516;51.612;7.510;2023-02-11T03:44:46;33.85;;;22.98;;
22697;SDS011;11516;51.612;7.510;2023-02-11T03:47:15;34.67;;;22.17;;
22697;SDS011;11516;51.612;7.510;2023-02-11T03:49:45;32.92;;;21.80;;
22697;SDS011;11516;51.612;7.510;2023-02-11T03:52:13;30.65;;;21.73;;
22697;SDS011;11516;51.612;7.510;2023-02-11T03:54:41;30.70;;;22.58;;
22697;SDS011;11516;51.612;7.510;2023-02-11T03:57:09;32.33;;;22.00;;
22697;SDS011;11516;51.612;7.510;2023-02-11T03:59:48;36.50;;;23.93;;
22697;SDS011;11516;51.612;7.510;2023-02-11T04:02:17;35.72;;;24.08;;
22697;SDS011;11516;51.612;7.510;2023-02-11T04:04:43;34.13;;;24.08;;
22697;SDS011;11516;51.612;7.510;2023-02-11T04:07:10;40.00;;;25.67;;
22697;SDS011;11516;51.612;7.510;2023-02-11T04:09:36;36.08;;;24.70;;
22697;SDS011;11516;51.612;7.510;2023-02-11T04:12:02;35.58;;;25.02;;
22697;SDS011;11516;51.612;7.510;2023-02-11T04:14:28;34.03;;;24.67;;
22697;SDS011;11516;51.612;7.510;2023-02-11T04:16:53;35.67;;;24.77;;
22697;SDS011;11516;51.612;7.510;2023-02-11T04:19:19;36.97;;;25.67;;
22697;SDS011;11516;51.612;7.510;2023-02-11T04:21:45;39.03;;;27.67;;
22697;SDS011;11516;51.612;7.510;2023-02-11T04:24:11;36.43;;;26.50;;
22697;SDS011;11516;51.612;7.510;2023-02-11T04:26:36;38.35;;;26.95;;
22697;SDS011;11516;51.612;7.510;2023-02-11T04:29:02;39.07;;;26.80;;
22697;SDS011;11516;51.612;7.510;2023-02-11T04:31:27;38.47;;;27.17;;
22697;SDS011;11516;51.612;7.510;2023-02-11T04:33:53;39.83;;;26.97;;
22697;SDS011;11516;51.612;7.510;2023-02-11T04:36:18;39.67;;;27.23;;
22697;SDS011;11516;51.612;7.510;2023-02-11T04:38:44;38.03;;;28.33;;
22697;SDS011;11516;51.612;7.510;2023-02-11T04:41:09;44.57;;;29.87;;
22697;SDS011;11516;51.612;7.510;2023-02-11T04:43:35;46.90;;;29.23;;
22697;SDS011;11516;51.612;7.510;2023-02-11T04:46:00;38.70;;;28.50;;
22697;SDS011;11516;51.612;7.510;2023-02-11T04:48:26;45.45;;;30.52;;
22697;SDS011;11516;51.612;7.510;2023-02-11T04:50:51;42.43;;;28.53;;
22697;SDS011;11516;51.612;7.510;2023-02-11T04:53:17;41.33;;;28.30;;
22697;SDS011;11516;51.612;7.510;2023-02-11T04:55:42;40.97;;;27.77;;
22697;SDS011;11516;51.612;7.510;2023-02-11T04:58:08;40.77;;;29.63;;
22697;SDS011;11516;51.612;7.510;2023-02-11T05:00:33;43.80;;;30.23;;
22697;SDS011;11516;51.612;7.510;2023-02-11T05:02:59;45.40;;;30.90;;
22697;SDS011;11516;51.612;7.510;2023-02-11T05:05:24;41.33;;;29.27;;
22697;SDS011;11516;51.612;7.510;2023-02-11T05:07:50;44.77;;;30.80;;
22697;SDS011;11516;51.612;7.510;2023-02-11T05:10:16;46.05;;;30.02;;
22697;SDS011;11516;51.612;7.510;2023-02-11T05:12:41;44.80;;;30.60;;
22697;SDS011;11516;51.612;7.510;2023-02-11T05:15:07;42.13;;;29.27;;
22697;SDS011;11516;51.612;7.510;2023-02-11T05:17:32;46.58;;;31.35;;
22697;SDS011;11516;51.612;7.510;2023-02-11T05:19:58;45.72;;;30.60;;
22697;SDS011;11516;51.612;7.510;2023-02-11T05:22:23;46.20;;;30.47;;
22697;SDS011;11516;51.612;7.510;2023-02-11T05:24:49;46.77;;;31.10;;
22697;SDS011;11516;51.612;7.510;2023-02-11T05:27:14;44.45;;;31.25;;
22697;SDS011;11516;51.612;7.510;2023-02-11T05:29:40;48.00;;;30.63;;
22697;SDS011;11516;51.612;7.510;2023-02-11T05:32:05;44.87;;;31.53;;
22697;SDS011;11516;51.612;7.510;2023-02-11T05:34:32;45.45;;;32.33;;
22697;SDS011;11516;51.612;7.510;2023-02-11T05:36:59;44.08;;;31.75;;
22697;SDS011;11516;51.612;7.510;2023-02-11T05:39:24;45.77;;;32.57;;
22697;SDS011;11516;51.612;7.510;2023-02-11T05:41:50;44.00;;;32.00;;
22697;SDS011;11516;51.612;7.510;2023-02-11T05:44:15;44.20;;;31.38;;
22697;SDS011;11516;51.612;7.510;2023-02-11T05:46:41;46.97;;;32.90;;
22697;SDS011;11516;51.612;7.510;2023-02-11T05:49:06;53.80;;;33.50;;
22697;SDS011;11516;51.612;7.510;2023-02-11T05:51:32;50.17;;;34.63;;
22697;SDS011;11516;51.612;7.510;2023-02-11T05:53:57;53.20;;;34.13;;
22697;SDS011;11516;51.612;7.510;2023-02-11T05:56:23;55.43;;;34.70;;
22697;SDS011;11516;51.612;7.510;2023-02-11T05:58:48;51.07;;;34.13;;
22697;SDS011;11516;51.612;7.510;2023-02-11T06:01:14;56.47;;;37.20;;
22697;SDS011;11516;51.612;7.510;2023-02-11T06:03:39;52.17;;;34.17;;
22697;SDS011;11516;51.612;7.510;2023-02-11T06:06:08;49.27;;;33.13;;
22697;SDS011;11516;51.612;7.510;2023-02-11T06:08:35;50.60;;;34.03;;
22697;SDS011;11516;51.612;7.510;2023-02-11T06:11:01;56.20;;;34.87;;
22697;SDS011;11516;51.612;7.510;2023-02-11T06:13:26;54.30;;;36.00;;
22697;SDS011;11516;51.612;7.510;2023-02-11T06:15:55;57.15;;;36.03;;
22697;SDS011;11516;51.612;7.510;2023-02-11T06:18:25;53.53;;;35.40;;
22697;SDS011;11516;51.612;7.510;2023-02-11T06:20:50;52.47;;;35.53;;
22697;SDS011;11516;51.612;7.510;2023-02-11T06:23:16;57.70;;;36.37;;
22697;SDS011;11516;51.612;7.510;2023-02-11T06:25:41;53.33;;;35.50;;
22697;SDS011;11516;51.612;7.510;2023-02-11T06:28:07;53.10;;;35.20;;
22697;SDS011;11516;51.612;7.510;2023-02-11T06:30:35;53.10;;;35.55;;
22697;SDS011;11516;51.612;7.510;2023-02-11T06:33:03;51.40;;;35.85;;
22697;SDS011;11516;51.612;7.510;2023-02-11T06:35:29;51.13;;;34.17;;
22697;SDS011;11516;51.612;7.510;2023-02-11T06:37:54;52.40;;;34.83;;
22697;SDS011;11516;51.612;7.510;2023-02-11T06:40:20;57.33;;;36.60;;
22697;SDS011;11516;51.612;7.510;2023-02-11T06:42:46;56.72;;;35.78;;
22697;SDS011;11516;51.612;7.510;2023-02-11T06:45:11;58.83;;;35.17;;
22697;SDS011;11516;51.612;7.510;2023-02-11T06:47:37;60.72;;;37.88;;
22697;SDS011;11516;51.612;7.510;2023-02-11T06:50:04;60.97;;;38.15;;
22697;SDS011;11516;51.612;7.510;2023-02-11T06:52:31;59.23;;;36.80;;
22697;SDS011;11516;51.612;7.510;2023-02-11T06:54:57;56.47;;;36.75;;
22697;SDS011;11516;51.612;7.510;2023-02-11T06:57:23;60.42;;;38.85;;
22697;SDS011;11516;51.612;7.510;2023-02-11T06:59:49;57.37;;;38.20;;
22697;SDS011;11516;51.612;7.510;2023-02-11T07:02:14;59.03;;;37.78;;
22697;SDS011;11516;51.612;7.510;2023-02-11T07:04:40;58.50;;;36.93;;
22697;SDS011;11516;51.612;7.510;2023-02-11T07:07:06;58.40;;;38.17;;
22697;SDS011;11516;51.612;7.510;2023-02-11T07:09:31;65.05;;;39.85;;
22697;SDS011;11516;51.612;7.510;2023-02-11T07:11:57;65.33;;;38.97;;
22697;SDS011;11516;51.612;7.510;2023-02-11T07:14:22;61.27;;;38.07;;
22697;SDS011;11516;51.612;7.510;2023-02-11T07:16:48;63.33;;;38.97;;
22697;SDS011;11516;51.612;7.510;2023-02-11T07:19:13;65.70;;;39.47;;
22697;SDS011;11516;51.612;7.510;2023-02-11T07:21:39;73.23;;;42.73;;
22697;SDS011;11516;51.612;7.510;2023-02-11T07:24:05;68.60;;;40.58;;
22697;SDS011;11516;51.612;7.510;2023-02-11T07:26:32;68.78;;;40.85;;
22697;SDS011;11516;51.612;7.510;2023-02-11T07:28:57;73.10;;;42.95;;
22697;SDS011;11516;51.612;7.510;2023-02-11T07:31:24;74.20;;;41.13;;
22697;SDS011;11516;51.612;7.510;2023-02-11T07:33:52;74.38;;;43.47;;
22697;SDS011;11516;51.612;7.510;2023-02-11T07:36:19;69.50;;;40.80;;
22697;SDS011;11516;51.612;7.510;2023-02-11T07:38:45;82.05;;;44.15;;
22697;SDS011;11516;51.612;7.510;2023-02-11T07:41:12;75.60;;;44.63;;
22697;SDS011;11516;51.612;7.510;2023-02-11T07:43:43;68.97;;;42.95;;
22697;SDS011;11516;51.612;7.510;2023-02-11T07:46:10;76.00;;;43.25;;
22697;SDS011;11516;51.612;7.510;2023-02-11T07:48:37;73.22;;;43.60;;
22697;SDS011;11516;51.612;7.510;2023-02-11T07:51:25;72.80;;;43.23;;
22697;SDS011;11516;51.612;7.510;2023-02-11T07:53:51;74.22;;;43.38;;
22697;SDS011;11516;51.612;7.510;2023-02-11T07:56:17;70.22;;;42.55;;
22697;SDS011;11516;51.612;7.510;2023-02-11T07:58:44;73.68;;;42.95;;
22697;SDS011;11516;51.612;7.510;2023-02-11T08:01:11;80.30;;;44.70;;
22697;SDS011;11516;51.612;7.510;2023-02-11T08:03:39;76.75;;;45.47;;
22697;SDS011;11516;51.612;7.510;2023-02-11T08:06:07;80.68;;;43.20;;
22697;SDS011;11516;51.612;7.510;2023-02-11T08:08:38;77.38;;;45.25;;
22697;SDS011;11516;51.612;7.510;2023-02-11T08:11:07;79.43;;;45.90;;
22697;SDS011;11516;51.612;7.510;2023-02-11T08:13:43;76.45;;;43.80;;
22697;SDS011;11516;51.612;7.510;2023-02-11T08:16:10;80.32;;;43.65;;
22697;SDS011;11516;51.612;7.510;2023-02-11T08:18:49;79.75;;;43.28;;
22697;SDS011;11516;51.612;7.510;2023-02-11T08:21:15;81.82;;;44.92;;
22697;SDS011;11516;51.612;7.510;2023-02-11T08:23:42;78.67;;;43.23;;
22697;SDS011;11516;51.612;7.510;2023-02-11T08:26:10;78.88;;;44.38;;
22697;SDS011;11516;51.612;7.510;2023-02-11T08:28:41;78.03;;;45.53;;
22697;SDS011;11516;51.612;7.510;2023-02-11T08:31:08;81.63;;;43.75;;
22697;SDS011;11516;51.612;7.510;2023-02-11T08:33:38;77.25;;;43.72;;
22697;SDS011;11516;51.612;7.510;2023-02-11T08:36:12;81.78;;;46.47;;
22697;SDS011;11516;51.612;7.510;2023-02-11T08:38:38;78.30;;;44.70;;
22697;SDS011;11516;51.612;7.510;2023-02-11T08:41:04;75.05;;;41.67;;
22697;SDS011;11516;51.612;7.510;2023-02-11T08:43:30;80.47;;;42.75;;
22697;SDS011;11516;51.612;7.510;2023-02-11T08:45:56;72.72;;;41.97;;
22697;SDS011;11516;51.612;7.510;2023-02-11T08:48:22;74.50;;;43.03;;
22697;SDS011;11516;51.612;7.510;2023-02-11T08:50:47;77.90;;;43.00;;
22697;SDS011;11516;51.612;7.510;2023-02-11T08:53:13;82.53;;;44.40;;
22697;SDS011;11516;51.612;7.510;2023-02-11T08:55:38;82.03;;;44.27;;
22697;SDS011;11516;51.612;7.510;2023-02-11T08:58:04;77.57;;;42.67;;
22697;SDS011;11516;51.612;7.510;2023-02-11T09:00:29;83.53;;;44.80;;
22697;SDS011;11516;51.612;7.510;2023-02-11T09:02:55;88.33;;;44.37;;
22697;SDS011;11516;51.612;7.510;2023-02-11T09:05:21;85.18;;;44.75;;
22697;SDS011;11516;51.612;7.510;2023-02-11T09:07:47;80.25;;;42.42;;
22697;SDS011;11516;51.612;7.510;2023-02-11T09:10:12;82.97;;;43.78;;
22697;SDS011;11516;51.612;7.510;2023-02-11T09:12:38;77.63;;;44.35;;
22697;SDS011;11516;51.612;7.510;2023-02-11T09:15:03;84.13;;;45.50;;
22697;SDS011;11516;51.612;7.510;2023-02-11T09:17:29;85.57;;;44.10;;
22697;SDS011;11516;51.612;7.510;2023-02-11T09:19:55;84.23;;;44.53;;
22697;SDS011;11516;51.612;7.510;2023-02-11T09:22:20;84.37;;;43.60;;
22697;SDS011;11516;51.612;7.510;2023-02-11T09:24:46;76.47;;;42.80;;
22697;SDS011;11516;51.612;7.510;2023-02-11T09:27:11;76.00;;;42.47;;
22697;SDS011;11516;51.612;7.510;2023-02-11T09:29:37;83.23;;;42.87;;
22697;SDS011;11516;51.612;7.510;2023-02-11T09:32:02;73.10;;;41.33;;
22697;SDS011;11516;51.612;7.510;2023-02-11T09:34:28;85.72;;;44.70;;
22697;SDS011;11516;51.612;7.510;2023-02-11T09:36:54;77.17;;;43.43;;
22697;SDS011;11516;51.612;7.510;2023-02-11T09:39:19;73.93;;;43.73;;
22697;SDS011;11516;51.612;7.510;2023-02-11T09:44:28;84.10;;;44.17;;
22697;SDS011;11516;51.612;7.510;2023-02-11T09:47:16;80.78;;;43.78;;
22697;SDS011;11516;51.612;7.510;2023-02-11T09:49:53;80.17;;;42.80;;
22697;SDS011;11516;51.612;7.510;2023-02-11T09:52:32;79.25;;;43.90;;
22697;SDS011;11516;51.612;7.510;2023-02-11T09:55:11;74.70;;;41.85;;
22697;SDS011;11516;51.612;7.510;2023-02-11T09:58:09;78.90;;;44.83;;
22697;SDS011;11516;51.612;7.510;2023-02-11T10:00:44;81.65;;;42.15;;
22697;SDS011;11516;51.612;7.510;2023-02-11T10:11:38;78.13;;;42.97;;
22697;SDS011;11516;51.612;7.510;2023-02-11T10:22:32;74.40;;;43.78;;
22697;SDS011;11516;51.612;7.510;2023-02-11T10:25:05;79.72;;;45.75;;
22697;SDS011;11516;51.612;7.510;2023-02-11T10:27:51;73.53;;;44.72;;
22697;SDS011;11516;51.612;7.510;2023-02-11T10:33:30;80.68;;;44.30;;
22697;SDS011;11516;51.612;7.510;2023-02-11T10:36:23;75.13;;;43.72;;
22697;SDS011;11516;51.612;7.510;2023-02-11T10:39:01;75.85;;;43.72;;
22697;SDS011;11516;51.612;7.510;2023-02-11T10:41:40;74.78;;;43.85;;
22697;SDS011;11516;51.612;7.510;2023-02-11T10:44:16;76.85;;;44.55;;
22697;SDS011;11516;51.612;7.510;2023-02-11T10:46:47;71.22;;;42.45;;
22697;SDS011;11516;51.612;7.510;2023-02-11T10:49:33;73.10;;;43.97;;
22697;SDS011;11516;51.612;7.510;2023-02-11T10:54:54;75.88;;;44.47;;
22697;SDS011;11516;51.612;7.510;2023-02-11T10:57:36;76.85;;;45.70;;
22697;SDS011;11516;51.612;7.510;2023-02-11T11:03:15;73.72;;;43.22;;
22697;SDS011;11516;51.612;7.510;2023-02-11T11:06:00;80.00;;;43.38;;
22697;SDS011;11516;51.612;7.510;2023-02-11T11:08:41;79.85;;;45.25;;
22697;SDS011;11516;51.612;7.510;2023-02-11T11:11:12;77.80;;;43.80;;
22697;SDS011;11516;51.612;7.510;2023-02-11T11:21:45;76.63;;;44.50;;
22697;SDS011;11516;51.612;7.510;2023-02-11T11:24:15;75.70;;;42.50;;
22697;SDS011;11516;51.612;7.510;2023-02-11T11:26:44;77.25;;;43.25;;
22697;SDS011;11516;51.612;7.510;2023-02-11T11:29:14;77.90;;;46.13;;
22697;SDS011;11516;51.612;7.510;2023-02-11T11:32:01;81.28;;;44.55;;
22697;SDS011;11516;51.612;7.510;2023-02-11T11:34:43;79.68;;;44.75;;
22697;SDS011;11516;51.612;7.510;2023-02-11T11:37:19;78.97;;;45.90;;
22697;SDS011;11516;51.612;7.510;2023-02-11T11:40:16;80.18;;;46.72;;
22697;SDS011;11516;51.612;7.510;2023-02-11T11:43:00;78.60;;;44.73;;
22697;SDS011;11516;51.612;7.510;2023-02-11T11:45:39;80.50;;;45.10;;
22697;SDS011;11516;51.612;7.510;2023-02-11T11:51:03;79.18;;;45.15;;
22697;SDS011;11516;51.612;7.510;2023-02-11T11:56:06;76.88;;;44.97;;
22697;SDS011;11516;51.612;7.510;2023-02-11T11:58:54;76.40;;;44.88;;
22697;SDS011;11516;51.612;7.510;2023-02-11T12:11:57;80.20;;;45.95;;
22697;SDS011;11516;51.612;7.510;2023-02-11T12:14:26;73.43;;;45.25;;
22697;SDS011;11516;51.612;7.510;2023-02-11T12:17:11;74.10;;;45.10;;
22697;SDS011;11516;51.612;7.510;2023-02-11T12:22:40;77.30;;;45.53;;
22697;SDS011;11516;51.612;7.510;2023-02-11T12:44:04;73.40;;;44.35;;
22697;SDS011;11516;51.612;7.510;2023-02-11T12:46:55;75.85;;;46.40;;
22697;SDS011;11516;51.612;7.510;2023-02-11T12:49:32;71.85;;;45.92;;
22697;SDS011;11516;51.612;7.510;2023-02-11T12:52:03;72.53;;;45.65;;
22697;SDS011;11516;51.612;7.510;2023-02-11T12:54:55;68.07;;;43.38;;
22697;SDS011;11516;51.612;7.510;2023-02-11T12:57:25;67.30;;;43.63;;
22697;SDS011;11516;51.612;7.510;2023-02-11T12:59:55;68.82;;;44.88;;
22697;SDS011;11516;51.612;7.510;2023-02-11T13:07:52;70.53;;;43.03;;
22697;SDS011;11516;51.612;7.510;2023-02-11T13:10:35;66.13;;;41.20;;
22697;SDS011;11516;51.612;7.510;2023-02-11T13:13:10;67.88;;;42.67;;
22697;SDS011;11516;51.612;7.510;2023-02-11T13:15:49;69.30;;;42.55;;
22697;SDS011;11516;51.612;7.510;2023-02-11T13:18:28;68.00;;;42.23;;
22697;SDS011;11516;51.612;7.510;2023-02-11T13:21:00;69.15;;;43.28;;
22697;SDS011;11516;51.612;7.510;2023-02-11T13:23:46;67.03;;;41.47;;
22697;SDS011;11516;51.612;7.510;2023-02-11T13:26:34;68.82;;;41.20;;
22697;SDS011;11516;51.612;7.510;2023-02-11T13:29:19;66.68;;;42.53;;
22697;SDS011;11516;51.612;7.510;2023-02-11T13:31:55;76.95;;;49.83;;
22697;SDS011;11516;51.612;7.510;2023-02-11T13:42:51;63.50;;;40.83;;
22697;SDS011;11516;51.612;7.510;2023-02-11T13:45:56;62.08;;;38.28;;
22697;SDS011;11516;51.612;7.510;2023-02-11T13:50:47;60.25;;;38.35;;
22697;SDS011;11516;51.612;7.510;2023-02-11T13:53:15;59.05;;;38.60;;
22697;SDS011;11516;51.612;7.510;2023-02-11T13:55:44;58.10;;;35.45;;
22697;SDS011;11516;51.612;7.510;2023-02-11T13:58:15;60.70;;;37.05;;
22697;SDS011;11516;51.612;7.510;2023-02-11T14:00:47;56.25;;;36.38;;
22697;SDS011;11516;51.612;7.510;2023-02-11T14:03:20;55.22;;;35.25;;
22697;SDS011;11516;51.612;7.510;2023-02-11T14:09:38;59.70;;;37.83;;
22697;SDS011;11516;51.612;7.510;2023-02-11T14:22:04;52.03;;;35.60;;
22697;SDS011;11516;51.612;7.510;2023-02-11T14:24:44;54.13;;;35.15;;
22697;SDS011;11516;51.612;7.510;2023-02-11T14:38:12;56.22;;;36.00;;
22697;SDS011;11516;51.612;7.510;2023-02-11T14:43:51;53.70;;;34.85;;
22697;SDS011;11516;51.612;7.510;2023-02-11T14:46:21;51.90;;;34.50;;
22697;SDS011;11516;51.612;7.510;2023-02-11T14:48:49;47.38;;;32.97;;
22697;SDS011;11516;51.612;7.510;2023-02-11T14:51:18;46.10;;;31.80;;
22697;SDS011;11516;51.612;7.510;2023-02-11T14:53:53;47.30;;;31.55;;
22697;SDS011;11516;51.612;7.510;2023-02-11T14:56:25;43.20;;;29.70;;
22697;SDS011;11516;51.612;7.510;2023-02-11T14:58:55;42.88;;;28.95;;
22697;SDS011;11516;51.612;7.510;2023-02-11T15:03:58;42.97;;;28.35;;
22697;SDS011;11516;51.612;7.510;2023-02-11T15:06:30;44.15;;;28.75;;
22697;SDS011;11516;51.612;7.510;2023-02-11T15:09:00;42.47;;;27.90;;
22697;SDS011;11516;51.612;7.510;2023-02-11T15:11:27;40.47;;;27.52;;
22697;SDS011;11516;51.612;7.510;2023-02-11T15:13:56;41.22;;;28.35;;
22697;SDS011;11516;51.612;7.510;2023-02-11T15:16:26;41.60;;;29.57;;
22697;SDS011;11516;51.612;7.510;2023-02-11T15:18:55;43.78;;;30.30;;
22697;SDS011;11516;51.612;7.510;2023-02-11T15:21:26;47.40;;;30.23;;
22697;SDS011;11516;51.612;7.510;2023-02-11T15:23:59;46.40;;;31.58;;
22697;SDS011;11516;51.612;7.510;2023-02-11T15:26:25;49.15;;;33.08;;
22697;SDS011;11516;51.612;7.510;2023-02-11T15:28:51;52.20;;;34.55;;
22697;SDS011;11516;51.612;7.510;2023-02-11T15:31:18;48.00;;;31.60;;
22697;SDS011;11516;51.612;7.510;2023-02-11T15:33:47;50.63;;;33.40;;
22697;SDS011;11516;51.612;7.510;2023-02-11T15:36:13;49.70;;;33.47;;
22697;SDS011;11516;51.612;7.510;2023-02-11T15:38:40;47.38;;;32.97;;
22697;SDS011;11516;51.612;7.510;2023-02-11T15:41:06;50.47;;;34.30;;
22697;SDS011;11516;51.612;7.510;2023-02-11T15:43:45;49.60;;;33.53;;
22697;SDS011;11516;51.612;7.510;2023-02-11T15:46:13;53.13;;;34.65;;
22697;SDS011;11516;51.612;7.510;2023-02-11T15:48:43;52.70;;;34.42;;
22697;SDS011;11516;51.612;7.510;2023-02-11T15:51:17;49.10;;;33.38;;
22697;SDS011;11516;51.612;7.510;2023-02-11T15:53:54;52.25;;;33.25;;
22697;SDS011;11516;51.612;7.510;2023-02-11T15:56:24;48.38;;;33.47;;
22697;SDS011;11516;51.612;7.510;2023-02-11T15:59:07;49.72;;;32.92;;
22697;SDS011;11516;51.612;7.510;2023-02-11T16:01:43;47.97;;;32.45;;
22697;SDS011;11516;51.612;7.510;2023-02-11T16:04:16;46.88;;;32.28;;
22697;SDS011;11516;51.612;7.510;2023-02-11T16:06:44;49.35;;;31.77;;
22697;SDS011;11516;51.612;7.510;2023-02-11T16:16:51;43.87;;;30.10;;
22697;SDS011;11516;51.612;7.510;2023-02-11T16:19:20;51.15;;;33.47;;
22697;SDS011;11516;51.612;7.510;2023-02-11T16:21:48;55.17;;;36.53;;
22697;SDS011;11516;51.612;7.510;2023-02-11T16:24:18;49.25;;;32.58;;
22697;SDS011;11516;51.612;7.510;2023-02-11T16:26:49;48.30;;;32.80;;
22697;SDS011;11516;51.612;7.510;2023-02-11T16:29:27;48.33;;;32.95;;
22697;SDS011;11516;51.612;7.510;2023-02-11T16:32:04;45.45;;;31.83;;
22697;SDS011;11516;51.612;7.510;2023-02-11T16:34:34;49.70;;;33.72;;
22697;SDS011;11516;51.612;7.510;2023-02-11T16:37:02;52.63;;;35.58;;
22697;SDS011;11516;51.612;7.510;2023-02-11T16:39:29;48.08;;;33.88;;
22697;SDS011;11516;51.612;7.510;2023-02-11T16:41:54;50.97;;;32.07;;
22697;SDS011;11516;51.612;7.510;2023-02-11T16:44:20;46.97;;;31.15;;
22697;SDS011;11516;51.612;7.510;2023-02-11T16:46:47;47.25;;;32.15;;
22697;SDS011;11516;51.612;7.510;2023-02-11T16:51:47;47.78;;;32.42;;
22697;SDS011;11516;51.612;7.510;2023-02-11T16:54:15;46.20;;;31.50;;
22697;SDS011;11516;51.612;7.510;2023-02-11T16:56:41;49.22;;;31.05;;
22697;SDS011;11516;51.612;7.510;2023-02-11T16:59:07;49.63;;;32.20;;
22697;SDS011;11516;51.612;7.510;2023-02-11T17:01:33;49.03;;;31.98;;
22697;SDS011;11516;51.612;7.510;2023-02-11T17:04:02;48.22;;;32.05;;
22697;SDS011;11516;51.612;7.510;2023-02-11T17:06:28;48.67;;;32.85;;
22697;SDS011;11516;51.612;7.510;2023-02-11T17:08:53;50.33;;;32.87;;
22697;SDS011;11516;51.612;7.510;2023-02-11T17:11:19;46.13;;;32.17;;
22697;SDS011;11516;51.612;7.510;2023-02-11T17:13:44;52.63;;;34.13;;
22697;SDS011;11516;51.612;7.510;2023-02-11T17:16:18;52.15;;;33.63;;
22697;SDS011;11516;51.612;7.510;2023-02-11T17:18:49;48.75;;;32.97;;
22697;SDS011;11516;51.612;7.510;2023-02-11T17:21:15;48.22;;;32.15;;
22697;SDS011;11516;51.612;7.510;2023-02-11T17:23:41;47.63;;;32.65;;
22697;SDS011;11516;51.612;7.510;2023-02-11T17:26:06;45.70;;;31.83;;
22697;SDS011;11516;51.612;7.510;2023-02-11T17:28:33;47.95;;;34.15;;